1S5

Sunnyside Municipal Airport

Sunnyside, Washington, USA
METAR K1S5 172315Z AUTO 00000KT 10SM CLR 10/M02 A3034 RMK AO2 T01011018
Observed Flight Rules
Nov-17 @ 23:15 UTC (20 minutes ago) Visual Flight Rules
Visibility Clouds
10 miles
  • Clear skies
Temperatures Readings
Current 10°C / 50°F
Dewpoint -2°C / 28°F
Humidity 43%
Altimeter 30.34" Hg
Pressure 1027 hPa
Elevation 234
METAR K1S5 172315Z AUTO 00000KT 10SM CLR 10/M02 A3034 RMK AO2 T01011018
Observed Flight Rules
Nov-17 @ 23:15 UTC
(20 minutes ago)
VFR
Clouds
  • Clear skies
Temperature Dewpoint
10°C / 50°F -2°C / 28°F
Humidity Altimeter Pressure
43% 30.34" Hg 1027 hPa